Time;durP1;ratioP1;P1;durP2;ratioP2;P2;SDS_P1;SDS_P2;PMS_P1;PMS_P2;Temp;Humidity;BMP_temperature;BMP_pressure;BME280_temperature;BME280_humidity;BME280_pressure;Samples;Min_cycle;Max_cycle;Signal;HPM_P1;HPM_P2
2022/01/04 00:00:17;;;;;;;13.43;10.15;;;;;;;2.39;100.00;99272.38;1709081;83;21063;-77
2022/01/04 00:02:44;;;;;;;14.30;10.23;;;;;;;2.34;100.00;99274.42;1709119;83;21048;-77
2022/01/04 00:05:11;;;;;;;15.83;11.00;;;;;;;2.34;100.00;99274.42;1709169;83;21509;-76
2022/01/04 00:07:39;;;;;;;15.10;10.32;;;;;;;2.34;100.00;99275.70;1708899;83;21072;-76
2022/01/04 00:10:08;;;;;;;12.15;9.83;;;;;;;2.31;100.00;99272.88;1708976;83;21555;-76
2022/01/04 00:15:25;;;;;;;14.93;10.72;;;;;;;2.28;100.00;99281.23;1709261;83;21988;-77
2022/01/04 00:17:53;;;;;;;15.53;10.40;;;;;;;2.24;100.00;99274.17;1709682;83;21043;-77
2022/01/04 00:20:20;;;;;;;13.00;10.48;;;;;;;2.27;100.00;99276.53;1708693;83;21095;-76
2022/01/04 00:22:47;;;;;;;15.63;11.30;;;;;;;2.27;100.00;99279.10;1712319;82;21105;-77
2022/01/04 00:25:15;;;;;;;13.38;10.20;;;;;;;2.27;100.00;99279.10;1725175;82;21125;-77
2022/01/04 00:27:44;;;;;;;13.75;10.30;;;;;;;2.31;100.00;99287.45;1724745;82;21076;-77
2022/01/04 00:30:12;;;;;;;14.43;10.38;;;;;;;2.28;100.00;99288.47;1692798;84;21546;-76
2022/01/04 00:32:40;;;;;;;13.38;10.35;;;;;;;2.28;100.00;99287.18;1722094;83;21123;-77
2022/01/04 00:35:09;;;;;;;18.35;11.83;;;;;;;2.32;100.00;99290.38;1692570;84;21392;-77
2022/01/04 00:37:36;;;;;;;15.75;11.15;;;;;;;2.30;100.00;99293.50;1722344;83;21601;-76
2022/01/04 00:40:06;;;;;;;15.30;11.08;;;;;;;2.29;100.00;99286.70;1680187;84;21030;-76
2022/01/04 00:42:36;;;;;;;13.20;9.88;;;;;;;2.29;100.00;99286.70;1701394;83;21085;-76
2022/01/04 00:45:04;;;;;;;12.93;10.23;;;;;;;2.31;100.00;99295.15;1722027;83;21066;-77
2022/01/04 00:49:09;;;;;;;12.73;10.72;;;;;;;2.31;100.00;99287.45;1700326;83;21831;-76
2022/01/04 00:50:13;;;;;;;14.70;10.45;;;;;;;2.27;100.00;99293.23;1694724;83;21018;-77
2022/01/04 00:52:40;;;;;;;13.68;10.90;;;;;;;2.27;100.00;99293.23;1691927;84;21005;-78
2022/01/04 00:55:08;;;;;;;15.25;10.88;;;;;;;2.26;100.00;99295.43;1691409;84;21359;-76
2022/01/04 00:57:35;;;;;;;14.65;11.15;;;;;;;2.26;100.00;99293.34;1691470;84;21152;-77
2022/01/04 01:00:05;;;;;;;13.95;11.38;;;;;;;2.27;100.00;99295.80;1691983;84;21212;-76
2022/01/04 01:02:34;;;;;;;13.68;10.48;;;;;;;2.29;100.00;99298.27;1708760;83;21018;-76
2022/01/04 01:05:03;;;;;;;15.98;11.08;;;;;;;2.29;100.00;99305.97;1715502;83;21028;-76
2022/01/04 01:07:34;;;;;;;13.58;10.43;;;;;;;2.30;100.00;99306.34;1716007;83;21608;-76
2022/01/04 01:10:21;;;;;;;12.85;9.08;;;;;;;2.30;100.00;99314.05;1716475;83;21037;-76
2022/01/04 01:12:35;;;;;;;11.50;9.50;;;;;;;2.29;100.00;99305.97;1714015;83;21116;-76
2022/01/04 01:15:06;;;;;;;11.78;9.43;;;;;;;2.30;100.00;99313.61;1716439;83;21007;-77
2022/01/04 01:17:33;;;;;;;12.85;8.43;;;;;;;2.33;100.00;99316.44;1716417;83;21025;-76
2022/01/04 01:20:06;;;;;;;14.25;10.80;;;;;;;2.33;100.00;99313.88;1721228;81;21040;-75
2022/01/04 01:22:35;;;;;;;13.20;8.95;;;;;;;2.30;100.00;99314.05;1718295;82;21067;-75
2022/01/04 01:25:04;;;;;;;12.53;9.30;;;;;;;2.29;100.00;99315.80;1712045;82;22076;-76
2022/01/04 01:27:33;;;;;;;13.37;9.47;;;;;;;2.30;100.00;99318.75;1705134;83;21470;-77
2022/01/04 01:30:01;;;;;;;11.35;9.15;;;;;;;2.29;100.00;99324.80;1705005;82;21028;-78
2022/01/04 01:32:28;;;;;;;10.78;8.68;;;;;;;2.29;100.00;99331.66;1704901;82;21110;-77
2022/01/04 01:34:55;;;;;;;11.85;8.33;;;;;;;2.28;100.00;99338.55;1705260;83;21599;-78
2022/01/04 01:37:25;;;;;;;12.00;8.35;;;;;;;2.26;100.00;99342.95;1704992;82;21600;-76
2022/01/04 01:39:54;;;;;;;9.50;7.67;;;;;;;2.26;100.00;99344.23;1705383;83;21500;-76
2022/01/04 01:42:21;;;;;;;10.93;8.40;;;;;;;2.27;100.00;99351.03;1705191;82;21215;-77
2022/01/04 01:44:49;;;;;;;9.68;8.23;;;;;;;2.30;100.00;99359.00;1704771;84;21532;-76
2022/01/04 01:47:17;;;;;;;10.55;7.37;;;;;;;2.25;100.00;99350.77;1681404;84;21513;-77
2022/01/04 01:49:45;;;;;;;7.87;7.08;;;;;;;2.23;100.00;99362.87;1705089;82;21036;-77
2022/01/04 01:52:12;;;;;;;7.60;6.12;;;;;;;2.24;100.00;99355.53;1705533;82;21047;-75
2022/01/04 01:54:39;;;;;;;8.98;6.25;;;;;;;2.25;100.00;99346.91;1705349;82;21147;-76
2022/01/04 01:57:07;;;;;;;7.90;5.75;;;;;;;2.25;100.00;99350.77;1704998;84;21082;-76
2022/01/04 01:59:34;;;;;;;7.40;5.37;;;;;;;2.19;100.00;99355.81;1698939;84;21053;-76
2022/01/04 02:02:01;;;;;;;6.30;4.80;;;;;;;2.17;100.00;99352.50;1687220;83;21175;-76
2022/01/04 02:04:28;;;;;;;5.55;4.87;;;;;;;2.19;100.00;99344.25;1658651;86;21687;-76
2022/01/04 02:06:56;;;;;;;6.67;4.62;;;;;;;2.20;100.00;99351.04;1666082;84;21040;-76
2022/01/04 02:09:25;;;;;;;5.20;4.45;;;;;;;2.20;100.00;99357.46;1659153;84;21012;-76
2022/01/04 02:11:54;;;;;;;4.62;4.10;;;;;;;2.12;100.00;99366.93;1680876;84;21106;-76
2022/01/04 02:14:21;;;;;;;4.90;4.12;;;;;;;2.12;100.00;99366.93;1704553;82;21814;-76
2022/01/04 02:16:49;;;;;;;4.62;4.17;;;;;;;2.12;100.00;99386.19;1705049;83;21087;-76
2022/01/04 02:19:16;;;;;;;8.15;4.50;;;;;;;2.10;100.00;99394.88;1704970;83;21016;-77
2022/01/04 02:21:44;;;;;;;7.28;3.90;;;;;;;2.07;100.00;99389.47;1704828;82;21463;-76
2022/01/04 02:24:12;;;;;;;5.28;4.30;;;;;;;2.03;100.00;99393.97;1704756;83;21870;-76
2022/01/04 02:26:40;;;;;;;6.87;4.08;;;;;;;2.03;100.00;99389.30;1704965;84;21157;-77
2022/01/04 02:29:08;;;;;;;5.37;4.17;;;;;;;2.03;100.00;99389.30;1705055;84;21055;-76
2022/01/04 02:31:38;;;;;;;6.40;3.98;;;;;;;2.01;100.00;99390.66;1681848;84;21047;-76
2022/01/04 02:34:05;;;;;;;6.75;4.30;;;;;;;1.99;100.00;99390.38;1705412;83;21012;-77
2022/01/04 02:36:33;;;;;;;4.72;3.80;;;;;;;2.01;100.00;99397.55;1704819;83;21048;-78
2022/01/04 02:38:59;;;;;;;4.37;3.80;;;;;;;2.02;100.00;99391.50;1704987;83;21732;-77
2022/01/04 02:41:27;;;;;;;4.10;3.05;;;;;;;2.02;100.00;99397.45;1704685;83;21037;-76
2022/01/04 02:43:54;;;;;;;5.25;3.45;;;;;;;1.98;100.00;99402.84;1681580;84;21138;-77
2022/01/04 02:46:23;;;;;;;4.08;3.20;;;;;;;1.96;100.00;99406.80;1681368;84;21548;-77
2022/01/04 02:48:50;;;;;;;4.60;3.25;;;;;;;1.94;100.00;99411.19;1680998;84;21153;-77
2022/01/04 02:51:18;;;;;;;4.28;2.98;;;;;;;1.92;100.00;99419.46;1705176;84;21317;-77
2022/01/04 02:53:45;;;;;;;5.17;3.58;;;;;;;1.87;100.00;99424.86;1704819;84;21071;-76
2022/01/04 02:56:14;;;;;;;4.85;3.37;;;;;;;1.84;100.00;99426.78;1704827;84;21083;-77
2022/01/04 02:58:42;;;;;;;4.28;3.27;;;;;;;1.80;100.00;99421.00;1705122;84;22097;-77
2022/01/04 03:01:09;;;;;;;3.40;2.83;;;;;;;1.79;100.00;99431.34;1704867;84;21032;-77
2022/01/04 03:03:37;;;;;;;3.62;3.30;;;;;;;1.76;100.00;99433.62;1705111;84;21634;-77
2022/01/04 03:06:04;;;;;;;3.75;3.10;;;;;;;1.74;100.00;99434.16;1681119;84;21039;-76
2022/01/04 03:08:32;;;;;;;4.50;3.55;;;;;;;1.73;100.00;99438.48;1705037;83;21059;-77
2022/01/04 03:10:59;;;;;;;3.90;3.10;;;;;;;1.70;100.00;99443.78;1681585;84;21138;-77
2022/01/04 03:13:26;;;;;;;4.00;3.10;;;;;;;1.69;100.00;99436.18;1681797;84;21020;-76
2022/01/04 03:15:55;;;;;;;3.45;3.08;;;;;;;1.68;100.00;99449.92;1705150;83;21031;-77
2022/01/04 03:18:22;;;;;;;4.42;3.37;;;;;;;1.67;100.00;99443.97;1705234;84;21012;-77
2022/01/04 03:20:49;;;;;;;3.30;3.00;;;;;;;1.66;100.00;99442.31;1681495;84;21091;-77
2022/01/04 03:23:16;;;;;;;4.05;2.92;;;;;;;1.65;100.00;99446.23;1706549;83;21043;-77
2022/01/04 03:25:43;;;;;;;3.85;3.42;;;;;;;1.62;100.00;99448.52;1685960;83;21071;-77
2022/01/04 03:28:12;;;;;;;5.28;3.80;;;;;;;1.61;100.00;99452.47;1709406;83;21580;-77
2022/01/04 03:30:40;;;;;;;4.25;3.52;;;;;;;1.57;100.00;99464.17;1709112;83;21007;-77
2022/01/04 03:33:10;;;;;;;4.53;3.30;;;;;;;1.57;100.00;99464.64;1709398;83;21091;-77
2022/01/04 03:35:38;;;;;;;4.80;3.50;;;;;;;1.55;100.00;99470.31;1709394;83;21702;-76
2022/01/04 03:38:05;;;;;;;4.58;3.55;;;;;;;1.54;100.00;99472.06;1709660;83;21079;-76
2022/01/04 03:40:32;;;;;;;5.33;3.65;;;;;;;1.57;100.00;99480.86;1700489;83;21839;-76
2022/01/04 03:42:59;;;;;;;3.67;3.20;;;;;;;1.61;100.00;99488.39;1687430;85;21089;-77
2022/01/04 03:45:26;;;;;;;5.62;3.50;;;;;;;1.61;100.00;99487.11;1687402;84;21045;-77
2022/01/04 03:47:53;;;;;;;4.60;4.00;;;;;;;1.60;100.00;99490.59;1687819;85;21082;-77
2022/01/04 03:50:21;;;;;;;4.75;3.70;;;;;;;1.58;100.00;99485.08;1693046;82;21042;-78
2022/01/04 03:52:48;;;;;;;5.10;3.47;;;;;;;1.60;100.00;99491.88;1687541;85;21821;-78
2022/01/04 03:55:15;;;;;;;5.50;3.45;;;;;;;1.61;100.00;99497.37;1673282;83;21061;-78
2022/01/04 03:57:43;;;;;;;4.47;3.58;;;;;;;1.61;100.00;99505.08;1672912;85;21065;-78
2022/01/04 04:00:11;;;;;;;4.78;3.90;;;;;;;1.59;100.00;99501.32;1687206;83;21058;-78
2022/01/04 04:02:42;;;;;;;3.77;3.35;;;;;;;1.59;100.00;99514.16;1687266;85;21566;-76
2022/01/04 04:05:09;;;;;;;5.42;3.72;;;;;;;1.57;100.00;99527.52;1673113;85;21860;-77
2022/01/04 04:07:38;;;;;;;3.92;3.50;;;;;;;1.54;100.00;99527.23;1686962;83;21105;-77
2022/01/04 04:10:06;;;;;;;4.40;4.00;;;;;;;1.53;100.00;99528.14;1673143;84;21050;-76
2022/01/04 04:12:34;;;;;;;4.33;3.55;;;;;;;1.51;100.00;99528.67;1686735;85;21771;-77
2022/01/04 04:15:04;;;;;;;6.37;3.87;;;;;;;1.50;100.00;99536.00;1687214;85;21562;-77
2022/01/04 04:17:32;;;;;;;4.17;3.47;;;;;;;1.48;100.00;99543.41;1687274;85;21171;-77
2022/01/04 04:19:59;;;;;;;3.40;3.10;;;;;;;1.44;100.00;99543.22;1696018;83;21023;-77
2022/01/04 04:22:27;;;;;;;4.28;3.65;;;;;;;1.41;100.00;99548.03;1685937;83;21123;-76
2022/01/04 04:24:55;;;;;;;5.80;3.50;;;;;;;1.37;100.00;99552.98;1714003;83;21079;-77
2022/01/04 04:27:22;;;;;;;5.30;3.40;;;;;;;1.35;100.00;99562.48;1662816;86;21132;-77
2022/01/04 04:29:49;;;;;;;3.90;3.50;;;;;;;1.31;100.00;99568.23;1708204;82;21126;-77
2022/01/04 04:32:16;;;;;;;3.60;3.20;;;;;;;1.31;100.00;99573.36;1690966;81;21079;-77
2022/01/04 04:34:43;;;;;;;4.87;3.40;;;;;;;1.30;100.00;99571.70;1684520;83;21075;-77
2022/01/04 04:37:12;;;;;;;3.90;3.10;;;;;;;1.29;100.00;99571.33;1704925;83;21019;-78
2022/01/04 04:39:39;;;;;;;3.72;3.25;;;;;;;1.28;100.00;99570.13;1704978;82;21075;-77
2022/01/04 04:42:07;;;;;;;5.17;3.15;;;;;;;1.26;100.00;99573.61;1704855;82;21116;-77
2022/01/04 04:44:34;;;;;;;4.33;3.45;;;;;;;1.24;100.00;99577.98;1705260;82;21549;-78
2022/01/04 04:47:01;;;;;;;4.50;3.60;;;;;;;1.22;100.00;99586.23;1705225;81;21542;-77
2022/01/04 04:49:28;;;;;;;4.03;3.15;;;;;;;1.20;100.00;99590.61;1704989;82;21090;-77
2022/01/04 04:51:57;;;;;;;7.85;3.62;;;;;;;1.19;100.00;99590.70;1704990;82;21065;-77
2022/01/04 04:54:24;;;;;;;5.90;3.65;;;;;;;1.31;100.00;99596.91;1705169;82;21057;-78
2022/01/04 04:56:51;;;;;;;4.05;3.60;;;;;;;1.53;100.00;99601.27;1704798;82;21055;-77
2022/01/04 04:59:18;;;;;;;5.90;3.30;;;;;;;1.53;100.00;99606.84;1675206;84;21050;-77
2022/01/04 05:01:45;;;;;;;4.80;3.47;;;;;;;1.37;100.00;99605.56;1678340;84;21108;-78
2022/01/04 05:04:12;;;;;;;4.65;3.33;;;;;;;1.30;100.00;99613.21;1678702;84;21459;-78
2022/01/04 05:06:39;;;;;;;6.58;5.03;;;;;;;1.23;100.00;99617.83;1683178;84;21586;-79
2022/01/04 05:09:06;;;;;;;7.60;3.75;;;;;;;1.22;100.00;99620.02;1705229;82;21043;-78
2022/01/04 05:11:33;;;;;;;9.60;3.12;;;;;;;1.28;100.00;99630.41;1704682;84;21545;-81
2022/01/04 05:14:07;;;;;;;4.75;3.02;;;;;;;1.30;100.00;99629.89;1705159;82;21032;-79
2022/01/04 05:16:34;;;;;;;4.10;3.17;;;;;;;1.34;100.00;99642.91;1712133;82;21051;-78
2022/01/04 05:19:01;;;;;;;3.77;3.35;;;;;;;1.31;100.00;99636.20;1704683;83;21126;-77
2022/01/04 05:21:28;;;;;;;4.47;3.72;;;;;;;1.31;100.00;99643.09;1704072;82;21529;-78
2022/01/04 05:23:55;;;;;;;5.30;3.67;;;;;;;1.32;100.00;99644.75;1705989;81;21002;-77
2022/01/04 05:26:23;;;;;;;6.53;3.83;;;;;;;1.33;100.00;99651.07;1685444;83;21067;-77
2022/01/04 05:28:50;;;;;;;5.33;3.72;;;;;;;1.33;100.00;99651.51;1683705;83;21113;-77
2022/01/04 05:31:18;;;;;;;5.05;3.65;;;;;;;1.34;100.00;99663.43;1685879;84;21163;-78
2022/01/04 05:33:46;;;;;;;5.90;3.47;;;;;;;1.34;100.00;99666.00;1704043;83;21436;-78
2022/01/04 05:36:13;;;;;;;6.03;3.80;;;;;;;1.37;100.00;99665.84;1724909;83;21009;-80
2022/01/04 05:38:41;;;;;;;7.22;4.37;;;;;;;1.37;100.00;99663.28;1723922;82;20986;-79
2022/01/04 05:41:09;;;;;;;7.10;4.10;;;;;;;1.37;100.00;99669.70;1725015;82;21018;-78
2022/01/04 05:43:36;;;;;;;4.87;4.30;;;;;;;1.34;100.00;99666.00;1725371;83;21188;-78
2022/01/04 05:46:03;;;;;;;5.12;3.92;;;;;;;1.31;100.00;99672.13;1725291;83;21543;-77
2022/01/04 05:48:30;;;;;;;7.40;5.42;;;;;;;1.30;100.00;99674.30;1724803;82;21093;-78
2022/01/04 05:50:58;;;;;;;9.85;5.60;;;;;;;1.30;100.00;99678.16;1725117;83;21064;-77
2022/01/04 05:53:25;;;;;;;8.15;4.95;;;;;;;1.30;100.00;99676.88;1714186;82;21587;-78
2022/01/04 05:55:52;;;;;;;9.68;4.97;;;;;;;1.30;100.00;99683.75;1704796;84;21883;-77
2022/01/04 05:58:19;;;;;;;6.58;4.30;;;;;;;1.26;100.00;99686.46;1705019;84;21561;-77
2022/01/04 06:00:46;;;;;;;7.15;4.17;;;;;;;1.26;100.00;99701.03;1705163;84;21008;-77
2022/01/04 06:03:13;;;;;;;7.85;3.95;;;;;;;1.26;100.00;99701.84;1704905;83;21596;-78
2022/01/04 06:05:41;;;;;;;7.50;4.12;;;;;;;1.29;100.00;99712.87;1705229;84;21013;-77
2022/01/04 06:08:09;;;;;;;5.15;3.83;;;;;;;1.30;100.00;99720.94;1705375;84;21199;-78
2022/01/04 06:10:39;;;;;;;5.20;3.50;;;;;;;1.35;100.00;99730.07;1687133;83;21086;-77
2022/01/04 06:15:38;;;;;;;5.97;3.98;;;;;;;1.46;100.00;99738.50;1658109;84;21582;-77
2022/01/04 06:18:02;;;;;;;3.60;3.08;;;;;;;1.49;100.00;99742.64;1655818;85;21069;-79
2022/01/04 06:20:31;;;;;;;5.00;3.17;;;;;;;1.48;100.00;99745.67;1662286;83;21910;-80
2022/01/04 06:22:58;;;;;;;4.75;3.60;;;;;;;1.50;100.00;99757.95;1683331;84;21077;-80
2022/01/04 06:25:27;;;;;;;4.08;3.20;;;;;;;1.48;100.00;99755.94;1676341;82;21548;-78
2022/01/04 06:27:56;;;;;;;5.25;3.22;;;;;;;1.47;100.00;99752.14;1674378;85;21043;-80
2022/01/04 06:30:24;;;;;;;4.20;2.83;;;;;;;1.46;100.00;99757.73;1674212;83;21075;-77
2022/01/04 06:32:53;;;;;;;4.28;3.20;;;;;;;1.50;100.00;99763.08;1660196;85;21182;-77
2022/01/04 06:35:20;;;;;;;5.60;3.20;;;;;;;1.58;100.00;99767.36;1646505;86;21054;-78
2022/01/04 06:37:47;;;;;;;12.90;3.25;;;;;;;1.64;100.00;99771.36;1668340;83;21048;-79
2022/01/04 06:40:16;;;;;;;5.05;3.80;;;;;;;1.67;100.00;99774.22;1647994;84;21025;-78
2022/01/04 06:42:44;;;;;;;4.78;3.33;;;;;;;1.67;100.00;99772.94;1658068;85;21097;-78
2022/01/04 06:45:14;;;;;;;3.70;3.27;;;;;;;1.68;100.00;99776.70;1627566;86;21895;-79
2022/01/04 06:47:41;;;;;;;4.83;3.58;;;;;;;1.70;100.00;99772.79;1668150;84;21078;-78
2022/01/04 06:50:09;;;;;;;5.33;3.62;;;;;;;1.71;100.00;99781.69;1669729;83;21678;-77
2022/01/04 06:52:37;;;;;;;5.35;3.50;;;;;;;1.75;100.00;99787.48;1652602;84;21032;-78
2022/01/04 06:55:05;;;;;;;6.17;3.72;;;;;;;1.82;100.00;99789.29;1671947;83;21105;-78
2022/01/04 06:57:32;;;;;;;5.17;3.72;;;;;;;1.88;100.00;99782.55;1627055;84;21157;-77
2022/01/04 07:00:00;;;;;;;3.77;3.10;;;;;;;1.88;100.00;99784.64;1671325;83;21111;-79
2022/01/04 07:02:28;;;;;;;5.03;3.60;;;;;;;1.82;100.00;99786.26;1645503;85;21028;-77
2022/01/04 07:04:55;;;;;;;8.50;3.45;;;;;;;1.79;100.00;99788.16;1688087;83;22208;-79
2022/01/04 07:07:24;;;;;;;4.05;3.40;;;;;;;1.79;100.00;99787.72;1691939;82;21047;-78
2022/01/04 07:09:51;;;;;;;3.85;3.50;;;;;;;1.81;100.00;99788.44;1674955;84;22067;-80
2022/01/04 07:12:20;;;;;;;5.67;3.60;;;;;;;1.85;100.00;99793.81;1668048;82;21642;-79
2022/01/04 07:14:47;;;;;;;5.20;3.83;;;;;;;1.91;100.00;99802.09;1616149;87;21683;-78
2022/01/04 07:17:15;;;;;;;4.62;3.72;;;;;;;1.93;100.00;99804.13;1647875;85;21115;-78
2022/01/04 07:19:43;;;;;;;5.37;3.83;;;;;;;1.92;100.00;99808.89;1648216;87;21059;-78
2022/01/04 07:22:11;;;;;;;4.53;3.80;;;;;;;1.93;100.00;99801.56;1656684;83;21397;-79
2022/01/04 07:24:39;;;;;;;4.35;3.65;;;;;;;1.97;100.00;99800.05;1695358;82;21138;-79
2022/01/04 07:27:06;;;;;;;3.95;3.40;;;;;;;2.01;100.00;99813.55;1713550;82;21073;-79
2022/01/04 07:29:35;;;;;;;5.35;3.80;;;;;;;2.04;100.00;99812.94;1683867;83;21020;-78
2022/01/04 07:32:03;;;;;;;11.90;3.92;;;;;;;2.06;100.00;99823.12;1714643;82;21500;-78
2022/01/04 07:34:30;;;;;;;11.25;3.87;;;;;;;2.16;100.00;99825.59;1711709;83;21558;-79
2022/01/04 07:36:58;;;;;;;4.15;3.45;;;;;;;2.24;100.00;99834.63;1706020;82;21083;-80
2022/01/04 07:39:26;;;;;;;15.58;4.35;;;;;;;2.24;100.00;99834.63;1747688;81;21198;-79
2022/01/04 07:41:54;;;;;;;5.35;3.70;;;;;;;2.19;100.00;99836.15;1750189;82;21044;-79
2022/01/04 07:44:21;;;;;;;6.65;3.92;;;;;;;2.21;100.00;99836.91;1717579;82;21015;-79
2022/01/04 07:46:48;;;;;;;4.85;3.80;;;;;;;2.17;100.00;99841.37;1726816;82;21114;-80
2022/01/04 07:49:16;;;;;;;5.92;3.83;;;;;;;2.15;100.00;99840.63;1701935;82;21025;-79
2022/01/04 07:51:43;;;;;;;4.80;3.70;;;;;;;2.15;100.00;99840.63;1705708;82;21005;-79
2022/01/04 07:54:10;;;;;;;4.72;3.47;;;;;;;2.13;100.00;99850.14;1731831;82;21014;-80
2022/01/04 07:56:38;;;;;;;7.47;4.17;;;;;;;2.05;100.00;99848.42;1732470;81;21085;-79
2022/01/04 07:59:05;;;;;;;7.53;4.20;;;;;;;2.00;100.00;99856.36;1733834;81;21970;-79
2022/01/04 08:01:34;;;;;;;15.48;6.10;;;;;;;2.00;100.00;99852.98;1731928;81;21069;-80
2022/01/04 08:04:03;;;;;;;11.15;4.37;;;;;;;2.03;100.00;99851.55;1734107;81;21559;-80
2022/01/04 08:06:31;;;;;;;7.65;4.12;;;;;;;2.11;100.00;99863.97;1732401;81;21019;-80
2022/01/04 08:08:58;;;;;;;10.18;4.50;;;;;;;2.16;100.00;99862.83;1733203;82;21125;-80
2022/01/04 08:11:26;;;;;;;7.70;4.05;;;;;;;2.12;100.00;99866.48;1731816;82;21690;-79
2022/01/04 08:13:54;;;;;;;6.20;3.98;;;;;;;2.07;100.00;99864.59;1731219;82;21073;-80
2022/01/04 08:16:21;;;;;;;6.03;4.15;;;;;;;2.09;100.00;99873.05;1732011;82;21026;-81
2022/01/04 08:18:50;;;;;;;5.72;4.33;;;;;;;2.11;100.00;99874.25;1732299;81;21050;-80
2022/01/04 08:21:20;;;;;;;5.47;4.22;;;;;;;2.08;100.00;99876.53;1731452;82;21042;-80
2022/01/04 08:23:47;;;;;;;8.70;4.90;;;;;;;2.04;100.00;99879.71;1732081;82;21738;-79
2022/01/04 08:26:16;;;;;;;7.30;4.85;;;;;;;2.04;100.00;99877.14;1731806;82;21697;-80
2022/01/04 08:28:43;;;;;;;9.63;4.72;;;;;;;2.07;100.00;99881.28;1731748;82;21027;-80
2022/01/04 08:31:11;;;;;;;5.95;4.40;;;;;;;2.06;100.00;99880.91;1732016;82;21053;-80
2022/01/04 08:33:38;;;;;;;8.33;4.70;;;;;;;2.04;100.00;99880.99;1731972;81;21015;-80
2022/01/04 08:36:07;;;;;;;12.73;4.67;;;;;;;2.03;100.00;99877.23;1731936;82;21562;-80
2022/01/04 08:38:35;;;;;;;6.05;4.62;;;;;;;2.04;100.00;99880.17;1731913;81;21074;-80
2022/01/04 08:41:02;;;;;;;7.03;4.85;;;;;;;2.10;100.00;99877.28;1732021;82;21542;-80
2022/01/04 08:43:30;;;;;;;6.42;4.62;;;;;;;2.14;100.00;99877.95;1733847;81;21069;-80
2022/01/04 08:45:57;;;;;;;6.42;4.37;;;;;;;2.16;100.00;99878.25;1732296;82;21050;-80
2022/01/04 08:48:24;;;;;;;5.28;4.03;;;;;;;2.15;100.00;99877.87;1732148;81;21999;-80
2022/01/04 08:50:51;;;;;;;5.45;4.15;;;;;;;2.16;100.00;99883.85;1731734;81;21026;-80
2022/01/04 08:53:19;;;;;;;5.30;4.25;;;;;;;2.12;100.00;99874.19;1731728;82;21029;-80
2022/01/04 08:55:47;;;;;;;5.25;3.90;;;;;;;2.12;100.00;99880.61;1732046;82;21126;-80
2022/01/04 08:58:14;;;;;;;5.83;4.30;;;;;;;2.15;100.00;99884.29;1733867;81;21598;-80
2022/01/04 09:00:43;;;;;;;4.70;3.83;;;;;;;2.16;100.00;99876.96;1731978;81;21572;-80
2022/01/04 09:03:11;;;;;;;6.08;3.83;;;;;;;2.21;100.00;99889.10;1710476;82;21050;-80
2022/01/04 09:05:39;;;;;;;5.00;3.35;;;;;;;2.25;100.00;99887.67;1732069;81;21105;-80
2022/01/04 09:08:06;;;;;;;5.22;3.85;;;;;;;2.27;100.00;99885.86;1732366;82;21081;-81
2022/01/04 09:10:34;;;;;;;5.72;4.37;;;;;;;2.26;100.00;99882.44;1732269;82;21039;-81
2022/01/04 09:13:14;;;;;;;6.53;4.10;;;;;;;2.31;100.00;99884.77;1732070;81;21145;-83
2022/01/04 09:15:56;;;;;;;4.78;3.52;;;;;;;2.30;100.00;99890.38;1731321;82;21084;-79
2022/01/04 09:20:51;;;;;;;5.95;4.12;;;;;;;2.29;100.00;99899.44;1674511;84;21639;-81
2022/01/04 09:23:20;;;;;;;5.95;4.10;;;;;;;2.32;100.00;99898.00;1661810;85;21563;-81
2022/01/04 09:25:50;;;;;;;7.35;4.40;;;;;;;2.32;100.00;99905.70;1690551;84;21160;-80
2022/01/04 09:28:19;;;;;;;6.37;4.65;;;;;;;2.35;100.00;99906.38;1663286;85;21050;-80
2022/01/04 09:30:53;;;;;;;6.28;4.22;;;;;;;2.43;100.00;99906.42;1665545;85;21058;-82
2022/01/04 09:33:21;;;;;;;7.40;4.65;;;;;;;2.66;100.00;99913.75;1663252;85;21101;-81
2022/01/04 09:35:49;;;;;;;6.62;4.50;;;;;;;2.66;100.00;99913.75;1663332;84;21046;-81
2022/01/04 09:38:18;;;;;;;6.00;4.20;;;;;;;2.78;100.00;99911.45;1651279;86;21591;-82
2022/01/04 09:40:49;;;;;;;4.97;3.90;;;;;;;2.89;100.00;99921.14;1663484;85;21579;-81
2022/01/04 09:43:19;;;;;;;5.15;4.33;;;;;;;2.94;100.00;99921.28;1663558;85;21061;-80
2022/01/04 09:45:48;;;;;;;7.10;4.53;;;;;;;2.95;100.00;99916.51;1663552;86;21519;-81
2022/01/04 09:48:16;;;;;;;5.35;4.40;;;;;;;2.94;100.00;99926.42;1663529;85;21655;-81
2022/01/04 09:50:43;;;;;;;4.78;4.20;;;;;;;2.94;100.00;99926.42;1663249;85;21835;-81
2022/01/04 09:53:19;;;;;;;9.90;4.35;;;;;;;2.95;100.00;99922.09;1663448;84;21046;-81
2022/01/04 09:55:44;;;;;;;4.87;3.58;;;;;;;2.90;100.00;99918.48;1661515;86;21057;-82
2022/01/04 09:58:11;;;;;;;4.15;3.60;;;;;;;2.88;100.00;99928.05;1663112;86;21116;-80
2022/01/04 10:00:38;;;;;;;5.42;3.75;;;;;;;2.88;100.00;99928.05;1651449;86;21097;-81
2022/01/04 10:03:17;;;;;;;5.22;4.10;;;;;;;2.87;100.00;99935.39;1663312;86;21188;-82
2022/01/04 10:05:45;;;;;;;6.08;4.58;;;;;;;2.87;100.00;99935.39;1662965;84;21077;-81
2022/01/04 10:08:14;;;;;;;5.47;4.40;;;;;;;2.76;100.00;99926.97;1651416;86;21074;-81
2022/01/04 10:10:42;;;;;;;6.55;4.35;;;;;;;2.70;100.00;99922.13;1651392;86;21152;-81
2022/01/04 10:13:14;;;;;;;4.97;4.03;;;;;;;2.65;100.00;99926.23;1662923;85;21020;-81
2022/01/04 10:15:50;;;;;;;5.97;4.20;;;;;;;2.68;100.00;99927.83;1661866;86;21834;-82
2022/01/04 10:18:23;;;;;;;4.37;3.98;;;;;;;2.70;100.00;99916.98;1663541;86;21590;-80
2022/01/04 10:21:02;;;;;;;4.75;3.90;;;;;;;2.70;100.00;99916.98;1663319;85;21057;-81
2022/01/04 10:23:31;;;;;;;6.00;3.70;;;;;;;2.72;100.00;99928.02;1663018;85;21208;-81
2022/01/04 10:26:06;;;;;;;6.33;4.00;;;;;;;2.67;100.00;99923.59;1626877;86;20967;-81
2022/01/04 10:28:39;;;;;;;4.15;3.40;;;;;;;2.67;100.00;99928.73;1704743;84;21180;-82
2022/01/04 10:31:10;;;;;;;5.45;3.60;;;;;;;2.68;100.00;99927.83;1704747;84;21035;-83
2022/01/04 10:33:37;;;;;;;5.83;3.43;;;;;;;2.64;100.00;99930.17;1705210;84;21074;-82
2022/01/04 10:36:16;;;;;;;5.75;3.60;;;;;;;2.63;100.00;99923.37;1684467;84;21015;-82
2022/01/04 10:38:46;;;;;;;5.70;4.22;;;;;;;2.64;100.00;99924.59;1704914;84;21528;-82
2022/01/04 10:41:25;;;;;;;7.78;4.70;;;;;;;2.74;100.00;99921.06;1704833;84;23071;-81
2022/01/04 10:43:59;;;;;;;6.83;5.30;;;;;;;2.74;100.00;99921.06;1702818;82;21519;-82
2022/01/04 10:46:41;;;;;;;6.87;4.95;;;;;;;2.85;100.00;99924.34;1711836;81;21499;-82
2022/01/04 10:49:22;;;;;;;11.15;4.83;;;;;;;2.97;100.00;99932.66;1738027;81;21041;-82
2022/01/04 10:52:09;;;;;;;;;;;;;;;2.97;100.00;99932.66;1740043;82;21050;-81
2022/01/04 10:54:36;;;;;;;6.35;4.37;;;;;;;3.01;100.00;99935.90;1738282;82;21136;-83
2022/01/04 10:57:09;;;;;;;5.72;4.45;;;;;;;3.01;100.00;99938.47;1737528;82;21045;-82
2022/01/04 10:59:37;;;;;;;14.45;4.92;;;;;;;3.04;100.00;99946.03;1737880;81;21037;-81
2022/01/04 11:02:06;;;;;;;11.33;4.45;;;;;;;3.08;100.00;99941.11;1717012;82;21109;-81
2022/01/04 11:04:37;;;;;;;5.30;3.90;;;;;;;3.05;100.00;99945.13;1737171;82;21148;-82
2022/01/04 11:07:03;;;;;;;7.92;4.35;;;;;;;3.04;100.00;99946.50;1734454;82;21955;-82
2022/01/04 11:09:31;;;;;;;5.70;4.17;;;;;;;2.99;100.00;99947.56;1737924;82;21086;-82
2022/01/04 11:12:00;;;;;;;7.62;4.70;;;;;;;2.97;100.00;99954.53;1736913;82;21042;-81
2022/01/04 11:14:28;;;;;;;6.45;4.10;;;;;;;2.97;100.00;99954.53;1737170;82;21116;-82
2022/01/04 11:16:57;;;;;;;5.62;4.10;;;;;;;2.98;100.00;99963.91;1737071;81;21109;-82
2022/01/04 11:19:25;;;;;;;5.62;4.20;;;;;;;2.98;100.00;99963.91;1737208;81;21634;-81
2022/01/04 11:21:53;;;;;;;5.08;4.55;;;;;;;2.94;100.00;99971.88;1716414;82;21077;-82
2022/01/04 11:24:25;;;;;;;5.67;4.83;;;;;;;2.94;100.00;99971.88;1735856;81;21388;-82
2022/01/04 11:26:53;;;;;;;6.00;4.65;;;;;;;2.91;100.00;99970.77;1677838;84;21027;-82
2022/01/04 11:29:24;;;;;;;6.40;4.90;;;;;;;2.95;100.00;99973.09;1651991;84;21099;-81
2022/01/04 11:32:08;;;;;;;10.38;5.05;;;;;;;2.95;100.00;99985.95;1668783;84;21170;-82
2022/01/04 11:35:13;;;;;;;6.72;5.58;;;;;;;2.92;100.00;99989.15;1665195;85;21016;-82
2022/01/04 11:37:43;;;;;;;6.72;4.90;;;;;;;2.86;100.00;99991.58;1647260;84;21378;-82
2022/01/04 11:40:37;;;;;;;7.70;5.70;;;;;;;2.77;100.00;99989.49;1675382;85;21059;-82
2022/01/04 11:43:26;;;;;;;7.25;5.70;;;;;;;2.71;100.00;99994.49;1674465;84;21087;-82
2022/01/04 11:45:55;;;;;;;7.35;5.53;;;;;;;2.63;100.00;99994.91;1674560;84;21119;-82